Time;durP1;ratioP1;P1;durP2;ratioP2;P2;SDS_P1;SDS_P2;PMS_P1;PMS_P2;Temp;Humidity;BMP_temperature;BMP_pressure;BME280_temperature;BME280_humidity;BME280_pressure;Samples;Min_cycle;Max_cycle;Signal;HPM_P1;HPM_P2
2022/04/19 00:02:07;;;;;;;8.40;4.72;;;;;;;5.88;57.45;92227.47;4996563;28;20035;-93
2022/04/19 00:04:43;;;;;;;9.10;5.13;;;;;;;5.63;57.30;92187.50;4962995;28;20113;-92
2022/04/19 00:07:19;;;;;;;;;;;;;;;;;;;;;
2022/04/19 00:09:51;;;;;;;8.32;4.85;;;;;;;5.92;57.57;92228.50;4978225;28;20022;-92
2022/04/19 00:12:43;;;;;;;9.98;5.00;;;;;;;5.80;57.85;92207.19;4977966;28;20018;-93
2022/04/19 00:15:24;;;;;;;9.85;5.20;;;;;;;5.68;57.27;92204.13;4977542;28;20042;-93
2022/04/19 00:18:22;;;;;;;;;;;;;;;;;;;;;
2022/04/19 00:21:06;;;;;;;;;;;;;;;;;;;;;
2022/04/19 00:23:43;;;;;;;10.00;5.07;;;;;;;5.70;57.75;92183.88;4978449;28;20087;-92
2022/04/19 00:29:49;;;;;;;9.40;5.05;;;;;;;5.71;57.57;92182.81;4979471;28;20030;-91
2022/04/19 00:32:32;;;;;;;11.23;4.60;;;;;;;6.01;58.01;92241.72;4993956;28;20030;-92
2022/04/19 00:35:16;;;;;;;10.18;4.95;;;;;;;5.64;58.26;92194.25;4944356;28;20031;-92
2022/04/19 00:37:54;;;;;;;10.05;5.13;;;;;;;5.67;58.72;92212.94;4942147;28;20090;-92
2022/04/19 00:40:45;;;;;;;10.15;4.95;;;;;;;5.74;59.09;92229.03;4946352;28;20039;-91
2022/04/19 00:43:36;;;;;;;;;;;;;;;;;;;;;
2022/04/19 00:46:17;;;;;;;8.60;4.60;;;;;;;5.20;59.58;92168.06;4961952;28;20042;-93
2022/04/19 00:48:55;;;;;;;10.65;5.03;;;;;;;5.16;58.93;92164.44;4976766;28;20034;-92
2022/04/19 00:51:34;;;;;;;;;;;;;;;;;;;;;
2022/04/19 00:54:19;;;;;;;10.15;5.10;;;;;;;5.25;59.50;92191.44;4976459;28;20044;-92
2022/04/19 00:57:05;;;;;;;9.65;4.95;;;;;;;5.16;59.85;92178.19;4960763;28;20026;-92
2022/04/19 00:59:50;;;;;;;10.13;4.93;;;;;;;5.21;59.42;92195.59;4976639;28;20042;-92
2022/04/19 01:02:29;;;;;;;8.88;4.93;;;;;;;5.06;59.66;92178.19;4961640;28;20094;-92
2022/04/19 01:05:55;;;;;;;;;;;;;;;;;;;;;
2022/04/19 01:08:49;;;;;;;8.80;4.57;;;;;;;5.16;59.67;92193.00;4936075;29;20050;-92
2022/04/19 01:14:30;;;;;;;9.48;4.60;;;;;;;5.15;59.79;92191.41;4937687;29;20035;-92
2022/04/19 01:17:39;;;;;;;8.63;4.93;;;;;;;5.14;59.78;92195.84;4936617;29;20043;-92
2022/04/19 01:20:14;;;;;;;13.73;5.13;;;;;;;5.10;59.72;92176.63;4919641;29;20095;-92
2022/04/19 01:22:50;;;;;;;8.52;5.10;;;;;;;4.97;59.98;92158.97;4929211;29;20036;-91
2022/04/19 01:25:59;;;;;;;;;;;;;;;;;;;;;
2022/04/19 01:28:44;;;;;;;11.00;5.10;;;;;;;5.13;60.40;92194.25;4957648;28;20042;-93
2022/04/19 01:31:54;;;;;;;;;;;;;;;;;;;;;
2022/04/19 01:34:44;;;;;;;9.95;5.13;;;;;;;4.88;61.19;92168.31;4952607;29;20123;-92
2022/04/19 01:37:47;;;;;;;;;;;;;;;;;;;;;
2022/04/19 01:40:26;;;;;;;;;;;;;;;5.02;61.40;92213.47;4944385;29;20046;-93
2022/04/19 01:43:26;;;;;;;10.80;5.40;;;;;;;4.78;61.27;92182.84;4943361;29;19925;-93
2022/04/19 01:46:05;;;;;;;6.97;4.60;;;;;;;4.73;61.77;92184.66;4957784;29;20023;-93
2022/04/19 01:48:56;;;;;;;;;;;;;;;;;;;;;
2022/04/19 01:52:09;;;;;;;;;;;;;;;;;;;;;
2022/04/19 01:54:44;;;;;;;9.85;4.97;;;;;;;4.27;62.54;92148.25;4955187;29;20401;-92
2022/04/19 01:57:42;;;;;;;8.68;4.72;;;;;;;4.26;63.13;92141.53;4958154;29;20057;-92
2022/04/19 02:00:25;;;;;;;9.15;5.20;;;;;;;4.26;63.31;92150.06;4958191;29;20377;-92
2022/04/19 02:03:25;;;;;;;;;;;;;;;;;;;;;
2022/04/19 02:06:20;;;;;;;9.60;5.13;;;;;;;4.17;63.52;92154.19;4958599;29;20130;-92
2022/04/19 02:09:06;;;;;;;8.45;4.45;;;;;;;4.18;63.41;92158.31;4957904;29;20464;-91
2022/04/19 02:12:26;;;;;;;8.63;5.05;;;;;;;4.20;63.59;92160.69;4945134;29;20142;-92
2022/04/19 02:15:40;;;;;;;11.93;4.97;;;;;;;4.11;64.34;92150.78;4935723;29;20040;-93
2022/04/19 02:18:22;;;;;;;10.48;5.35;;;;;;;3.97;64.18;92134.94;4965889;29;20074;-92
2022/04/19 02:21:03;;;;;;;;;;;;;;;4.38;64.08;92205.03;4951573;29;20102;-92
2022/04/19 02:23:51;;;;;;;8.85;5.05;;;;;;;4.09;64.28;92159.84;4965851;29;19914;-93
2022/04/19 02:26:40;;;;;;;;;;;;;;;;;;;;;
2022/04/19 02:29:25;;;;;;;8.88;5.10;;;;;;;3.97;64.96;92150.50;4945118;29;20388;-92
2022/04/19 02:32:20;;;;;;;9.20;5.22;;;;;;;3.84;64.88;92125.06;4957636;29;20053;-92
2022/04/19 02:35:19;;;;;;;;;;;;;;;;;;;;;
2022/04/19 02:37:55;;;;;;;9.98;5.40;;;;;;;4.27;64.50;92192.31;4943149;29;20137;-92
2022/04/19 02:40:57;;;;;;;;;;;;;;;;;;;;;
2022/04/19 02:43:50;;;;;;;9.38;5.10;;;;;;;4.20;64.90;92189.94;4957812;29;20031;-92
2022/04/19 02:46:29;;;;;;;11.15;5.70;;;;;;;4.04;65.17;92167.63;4926688;29;20039;-92
2022/04/19 02:49:36;;;;;;;9.10;5.15;;;;;;;3.74;65.34;92132.81;4912811;29;20554;-92
2022/04/19 02:52:29;;;;;;;10.65;5.38;;;;;;;4.02;65.35;92174.84;4938550;29;20481;-92
2022/04/19 02:55:46;;;;;;;13.13;5.40;;;;;;;3.84;65.21;92148.38;4937976;29;20051;-91
2022/04/19 02:58:25;;;;;;;10.07;5.20;;;;;;;3.64;65.47;92117.22;4953636;29;20561;-92
2022/04/19 03:01:09;;;;;;;8.43;4.82;;;;;;;3.86;65.49;92153.28;4940722;28;20046;-92
2022/04/19 03:04:05;;;;;;;;;;;;;;;;;;;;;
2022/04/19 03:06:55;;;;;;;;;;;;;;;;;;;;;
2022/04/19 03:09:32;;;;;;;10.40;6.25;;;;;;;3.89;66.11;92156.16;4965425;28;20050;-90
2022/04/19 03:12:11;;;;;;;10.55;5.60;;;;;;;3.73;65.93;92136.41;4965888;28;20042;-91
2022/04/19 03:15:10;;;;;;;13.68;6.55;;;;;;;3.80;66.02;92147.31;4965234;28;20038;-92
2022/04/19 03:17:54;;;;;;;9.15;5.28;;;;;;;3.51;66.25;92105.50;4979750;28;20065;-91
2022/04/19 03:20:34;;;;;;;7.85;5.40;;;;;;;3.53;66.27;92111.19;4964943;28;20031;-91
2022/04/19 03:29:06;;;;;;;9.20;5.43;;;;;;;3.88;66.54;92170.13;5001224;28;20049;-92
2022/04/19 03:32:00;;;;;;;9.02;5.40;;;;;;;3.86;66.70;92166.25;4971713;28;20030;-92
2022/04/19 03:35:08;;;;;;;11.68;5.45;;;;;;;3.45;66.49;92104.69;4972418;28;20050;-92
2022/04/19 03:38:07;;;;;;;10.80;5.40;;;;;;;3.70;66.43;92142.09;4982666;28;20042;-93
2022/04/19 03:44:17;;;;;;;9.55;4.93;;;;;;;3.35;66.57;92091.69;4987094;28;20538;-92
2022/04/19 03:47:09;;;;;;;10.77;5.70;;;;;;;3.82;66.76;92165.97;4971521;28;20086;-91
2022/04/19 03:49:41;;;;;;;11.10;5.50;;;;;;;3.72;67.45;92132.28;4953758;28;20045;-92
2022/04/19 03:52:42;;;;;;;10.90;5.85;;;;;;;3.88;66.87;92154.59;4983700;28;20535;-92
2022/04/19 03:55:27;;;;;;;;;;;;;;;;;;;;;
2022/04/19 04:00:58;;;;;;;10.77;5.38;;;;;;;3.51;66.89;92108.88;4962113;28;20559;-92
2022/04/19 04:04:04;;;;;;;9.27;5.40;;;;;;;3.65;66.82;92129.91;4977733;28;20034;-91
2022/04/19 04:07:20;;;;;;;;;;;;;;;;;;;;;
2022/04/19 04:10:07;;;;;;;9.38;5.25;;;;;;;3.31;67.54;92088.06;4989207;28;20065;-93
2022/04/19 04:13:10;;;;;;;9.98;5.88;;;;;;;3.28;67.56;92083.38;5013550;28;20034;-93
2022/04/19 04:15:46;;;;;;;11.13;5.57;;;;;;;3.27;67.59;92079.25;4973233;28;20076;-92
2022/04/19 04:18:24;;;;;;;8.90;5.07;;;;;;;3.27;67.59;92074.09;4960167;28;20039;-92
2022/04/19 04:21:08;;;;;;;10.55;5.88;;;;;;;3.33;68.13;92086.78;4931901;28;20035;-88
2022/04/19 04:23:49;;;;;;;;;;;;;;;;;;;;;
2022/04/19 04:26:26;;;;;;;8.23;5.18;;;;;;;3.38;68.42;92104.16;4990983;28;20383;-89
2022/04/19 04:28:58;;;;;;;10.13;5.55;;;;;;;3.65;68.08;92137.66;4957280;28;20118;-87
2022/04/19 04:31:34;;;;;;;8.88;5.15;;;;;;;3.42;67.19;92099.25;4960513;28;20034;-88
2022/04/19 04:34:08;;;;;;;8.50;5.10;;;;;;;3.31;67.16;92082.88;4977762;28;20081;-88
2022/04/19 04:36:45;;;;;;;10.57;5.53;;;;;;;3.39;67.26;92092.00;4951592;28;20134;-89
2022/04/19 04:39:36;;;;;;;10.52;5.47;;;;;;;3.37;66.68;92087.06;4969053;28;20527;-87
2022/04/19 04:42:33;;;;;;;10.25;5.03;;;;;;;3.34;66.34;92082.41;4974470;28;20149;-88
2022/04/19 04:45:27;;;;;;;9.38;5.28;;;;;;;3.30;66.07;92069.16;4960772;28;20045;-88
2022/04/19 04:50:54;;;;;;;11.38;5.53;;;;;;;3.70;66.44;92121.38;4951578;28;20050;-88
2022/04/19 04:53:21;;;;;;;11.88;5.20;;;;;;;3.64;66.15;92101.69;4968079;28;20381;-89
2022/04/19 04:56:01;;;;;;;9.50;5.00;;;;;;;3.71;65.95;92097.03;4942086;28;20043;-88
2022/04/19 04:58:27;;;;;;;9.38;5.20;;;;;;;3.85;65.85;92108.50;4974338;28;20038;-88
2022/04/19 05:00:53;;;;;;;9.40;5.45;;;;;;;3.85;65.87;92098.16;4974837;28;20093;-88
2022/04/19 05:03:19;;;;;;;10.73;5.35;;;;;;;3.99;66.19;92102.84;4959363;28;20042;-88
2022/04/19 05:05:44;;;;;;;9.95;5.15;;;;;;;3.89;66.13;92085.44;4960202;28;20034;-88
2022/04/19 05:08:14;;;;;;;11.25;5.85;;;;;;;4.07;66.05;92097.94;4959991;28;20049;-88
2022/04/19 05:10:41;;;;;;;11.90;6.45;;;;;;;4.20;65.84;92104.44;4975708;28;20141;-88
2022/04/19 05:13:13;;;;;;;9.48;5.75;;;;;;;4.27;65.61;92099.78;4945639;28;20038;-88
2022/04/19 05:15:42;;;;;;;9.57;5.00;;;;;;;4.41;65.90;92104.47;4975664;28;20050;-88
2022/04/19 05:18:11;;;;;;;12.05;5.47;;;;;;;4.41;65.48;92101.88;4944347;28;20065;-88
2022/04/19 05:20:37;;;;;;;10.68;5.28;;;;;;;4.57;65.27;92104.25;4928025;28;20030;-87
2022/04/19 05:23:05;;;;;;;9.43;5.47;;;;;;;4.70;65.01;92107.38;4943486;28;20392;-88
2022/04/19 05:25:31;;;;;;;10.68;5.78;;;;;;;4.84;64.84;92111.03;4944265;28;20039;-88
2022/04/19 05:27:56;;;;;;;11.27;5.95;;;;;;;4.80;64.48;92078.84;4960107;28;20038;-88
2022/04/19 05:30:22;;;;;;;9.68;5.32;;;;;;;5.10;63.75;92106.56;4960131;28;20034;-88
2022/04/19 05:32:48;;;;;;;8.35;5.32;;;;;;;5.20;63.55;92096.19;4960168;28;20081;-88
2022/04/19 05:35:14;;;;;;;11.98;5.68;;;;;;;5.16;63.53;92060.66;4975759;28;20105;-88
2022/04/19 05:37:40;;;;;;;12.23;5.10;;;;;;;5.36;62.85;92070.22;4960236;28;20031;-88
2022/04/19 05:40:07;;;;;;;11.05;5.28;;;;;;;5.64;62.38;92082.56;4975731;28;20042;-88
2022/04/19 05:42:35;;;;;;;8.95;5.30;;;;;;;5.79;62.14;92080.97;4956638;28;20137;-88
2022/04/19 05:45:01;;;;;;;9.65;5.05;;;;;;;5.93;61.80;92076.75;4924726;28;20476;-88
2022/04/19 05:47:28;;;;;;;10.85;5.38;;;;;;;6.12;61.26;92076.16;4940778;28;20481;-88
2022/04/19 05:49:53;;;;;;;12.18;5.32;;;;;;;6.37;61.03;92083.84;4940605;28;20050;-88
2022/04/19 05:52:19;;;;;;;9.73;5.68;;;;;;;6.51;60.72;92072.81;4942295;28;20057;-89
2022/04/19 05:54:45;;;;;;;9.65;5.13;;;;;;;6.74;60.45;92085.13;4959816;28;20038;-87
2022/04/19 05:57:13;;;;;;;8.88;5.13;;;;;;;6.88;59.62;92078.25;4943813;28;20110;-87
2022/04/19 05:59:38;;;;;;;14.93;6.13;;;;;;;7.09;58.90;92091.88;4959359;28;20057;-88
2022/04/19 06:04:52;;;;;;;9.60;5.03;;;;;;;7.42;56.84;92057.47;4975205;28;20601;-88
2022/04/19 06:07:26;;;;;;;12.65;5.28;;;;;;;7.87;56.42;92081.47;4975329;28;20034;-88
2022/04/19 06:09:52;;;;;;;9.48;4.60;;;;;;;8.06;54.84;92069.25;4974862;28;20030;-89
2022/04/19 06:12:18;;;;;;;10.95;5.00;;;;;;;8.44;52.95;92071.13;4958935;28;20030;-88
2022/04/19 06:14:49;;;;;;;9.20;5.10;;;;;;;8.69;51.80;92072.56;4962088;28;20042;-88
2022/04/19 06:17:17;;;;;;;9.70;4.63;;;;;;;9.00;51.05;92056.44;4965382;28;20033;-89
2022/04/19 06:19:44;;;;;;;8.60;4.88;;;;;;;10.86;46.52;92045.47;4966468;28;20042;-88
2022/04/19 06:22:10;;;;;;;7.78;4.80;;;;;;;14.34;37.89;92036.97;4968582;28;20475;-88
2022/04/19 06:24:39;;;;;;;11.10;4.68;;;;;;;16.44;33.84;92045.13;4978662;28;20093;-88
2022/04/19 06:27:05;;;;;;;8.60;4.70;;;;;;;17.56;31.27;92043.69;4965124;28;20031;-86
2022/04/19 06:29:30;;;;;;;7.85;4.60;;;;;;;19.19;28.79;92056.81;4994668;28;20125;-89
2022/04/19 06:31:57;;;;;;;10.35;4.47;;;;;;;19.80;27.99;92050.72;4953274;28;20467;-90
2022/04/19 06:34:30;;;;;;;7.97;4.43;;;;;;;20.79;25.88;92037.44;4971745;28;20503;-90
2022/04/19 06:37:13;;;;;;;;;;;;;;;21.08;24.73;92040.47;4975650;28;20034;-89
2022/04/19 06:39:42;;;;;;;9.20;4.80;;;;;;;18.58;28.85;92042.28;4960857;28;19918;-89
2022/04/19 06:42:09;;;;;;;9.45;4.88;;;;;;;19.38;26.81;92034.78;4959509;28;20046;-90
2022/04/19 06:44:54;;;;;;;8.30;4.90;;;;;;;20.30;26.45;92024.19;4968559;28;20105;-89
2022/04/19 06:47:25;;;;;;;8.23;5.00;;;;;;;20.36;25.67;92034.16;4949121;28;20391;-89
2022/04/19 06:49:57;;;;;;;7.25;4.60;;;;;;;20.96;24.62;92038.81;4979084;28;20161;-90
2022/04/19 06:52:24;;;;;;;10.88;5.00;;;;;;;20.30;25.71;92040.13;4966404;28;20065;-89
2022/04/19 06:54:50;;;;;;;8.95;5.15;;;;;;;19.88;27.29;92017.88;4965336;28;20379;-89
2022/04/19 06:57:16;;;;;;;9.80;5.07;;;;;;;19.74;26.99;92031.66;4982888;28;20043;-88
2022/04/19 06:59:42;;;;;;;8.13;4.78;;;;;;;19.47;27.69;92016.75;4952739;28;20065;-89
2022/04/19 07:02:08;;;;;;;8.95;4.72;;;;;;;15.86;32.69;92035.81;4983888;28;20053;-90
2022/04/19 07:04:33;;;;;;;8.65;4.57;;;;;;;15.58;33.27;92031.09;5000572;28;20043;-89
2022/04/19 07:07:03;;;;;;;9.52;4.80;;;;;;;13.92;35.68;91998.19;4974290;28;20109;-89
2022/04/19 07:09:30;;;;;;;9.35;4.63;;;;;;;14.15;34.32;92032.88;4950511;28;20045;-89
2022/04/19 07:11:57;;;;;;;10.50;4.63;;;;;;;14.34;34.01;92029.84;4970644;28;20046;-86
2022/04/19 07:14:31;;;;;;;17.80;5.55;;;;;;;12.62;41.52;92022.19;4953951;28;20049;-88
2022/04/19 07:16:58;;;;;;;11.25;4.75;;;;;;;13.01;38.88;92031.72;4950423;28;20047;-88
2022/04/19 07:19:25;;;;;;;9.45;5.38;;;;;;;12.06;42.07;92024.59;4951423;28;20070;-88
2022/04/19 07:27:43;;;;;;;9.88;5.15;;;;;;;12.24;41.29;92026.16;4981034;28;20038;-89
2022/04/19 07:30:10;;;;;;;6.63;3.95;;;;;;;12.35;39.86;92021.41;4968808;28;20065;-91
2022/04/19 07:32:39;;;;;;;10.55;4.63;;;;;;;12.16;40.39;92028.78;4967182;28;20038;-91
2022/04/19 07:35:28;;;;;;;9.88;5.22;;;;;;;12.13;38.98;92027.53;4983608;28;20395;-89
2022/04/19 07:37:54;;;;;;;8.82;4.85;;;;;;;11.74;42.23;92013.38;4982722;28;20038;-90
2022/04/19 07:40:24;;;;;;;12.80;4.95;;;;;;;11.31;44.88;92019.22;4947611;28;20537;-89
2022/04/19 07:42:52;;;;;;;10.10;4.93;;;;;;;11.21;45.94;92019.47;4962420;28;20038;-89
2022/04/19 07:45:19;;;;;;;11.20;4.80;;;;;;;11.73;43.61;92014.47;4961770;28;20494;-89
2022/04/19 07:47:44;;;;;;;8.75;4.80;;;;;;;10.67;45.93;92027.31;4962611;28;20129;-88
2022/04/19 07:50:10;;;;;;;9.63;4.78;;;;;;;10.93;46.12;92022.25;4963458;28;20068;-93
2022/04/19 07:52:38;;;;;;;8.93;5.30;;;;;;;11.15;45.41;92016.22;4966211;28;20498;-93
2022/04/19 07:55:27;;;;;;;8.55;5.20;;;;;;;10.75;45.21;91989.19;4963308;28;20022;-94
2022/04/19 07:58:17;;;;;;;9.65;5.32;;;;;;;10.91;44.81;91958.16;4965155;28;20053;-93
2022/04/19 08:00:59;;;;;;;9.85;5.40;;;;;;;11.18;44.60;91957.22;4961747;28;20042;-94
2022/04/19 08:03:39;;;;;;;9.45;4.90;;;;;;;11.01;42.89;91969.16;4982714;28;20201;-94
2022/04/19 08:06:19;;;;;;;8.23;4.68;;;;;;;11.02;43.56;91954.97;4982466;28;20034;-94
2022/04/19 08:09:11;;;;;;;;;;;;;;;;;;;;;
2022/04/19 08:12:01;;;;;;;;;;;;;;;;;;;;;
2022/04/19 08:14:45;;;;;;;;;;;;;;;;;;;;;
2022/04/19 08:17:27;;;;;;;9.88;5.10;;;;;;;11.00;44.42;91940.66;4976345;28;20031;-94
2022/04/19 08:20:26;;;;;;;;;;;;;;;;;;;;;
2022/04/19 08:23:02;;;;;;;11.55;4.75;;;;;;;11.46;42.23;91940.22;4952612;28;20048;-95
2022/04/19 08:25:47;;;;;;;;;;;;;;;;;;;;;
2022/04/19 08:28:41;;;;;;;10.73;5.00;;;;;;;10.91;43.54;91951.09;4975053;28;20046;-93
2022/04/19 08:31:23;;;;;;;6.80;2.95;;;;;;;11.31;42.18;91940.63;4978787;28;20034;-93
2022/04/19 08:33:55;;;;;;;8.35;4.80;;;;;;;11.33;42.87;91992.75;4993237;28;20062;-80
2022/04/19 08:36:24;;;;;;;9.02;4.68;;;;;;;11.57;43.08;91985.28;4961564;28;20125;-80
2022/04/19 08:38:49;;;;;;;14.07;5.28;;;;;;;11.71;43.01;91979.91;4978549;28;20459;-80
2022/04/19 08:41:21;;;;;;;9.05;4.68;;;;;;;11.96;41.52;91975.81;4938199;28;20101;-79
2022/04/19 08:43:47;;;;;;;8.40;5.00;;;;;;;12.10;41.71;91978.31;4942514;28;20039;-80
2022/04/19 08:46:21;;;;;;;10.80;4.32;;;;;;;12.43;41.08;91978.63;4943792;28;20531;-80
2022/04/19 08:48:47;;;;;;;9.63;4.93;;;;;;;11.97;41.29;91972.13;4941753;28;20503;-79
2022/04/19 08:51:16;;;;;;;11.15;4.82;;;;;;;12.58;39.51;91974.75;4974433;28;20030;-80
2022/04/19 08:59:14;;;;;;;10.90;4.40;;;;;;;12.71;41.01;91962.53;4960408;28;20101;-80
2022/04/19 09:01:41;;;;;;;11.38;4.82;;;;;;;12.07;41.69;91961.34;4974284;28;20077;-80
2022/04/19 09:04:07;;;;;;;8.80;4.60;;;;;;;12.65;39.86;91969.81;4957638;28;20482;-79
2022/04/19 09:06:59;;;;;;;7.55;4.38;;;;;;;12.32;41.38;91971.38;4957705;28;20042;-80
2022/04/19 09:09:26;;;;;;;9.45;4.53;;;;;;;12.34;41.50;91959.50;4975135;28;20118;-81
2022/04/19 09:11:54;;;;;;;8.48;4.45;;;;;;;13.12;39.62;91961.97;4974663;28;20043;-81
2022/04/19 09:14:25;;;;;;;11.70;4.30;;;;;;;13.09;39.35;91951.34;4957033;28;20038;-80
2022/04/19 09:17:05;;;;;;;7.63;4.65;;;;;;;12.36;39.14;91941.59;4975020;28;20039;-80
2022/04/19 09:19:31;;;;;;;9.23;4.22;;;;;;;12.57;39.41;91952.22;4957001;28;20066;-80
2022/04/19 09:21:57;;;;;;;8.50;4.75;;;;;;;12.26;41.39;91958.41;4974890;28;20069;-80
2022/04/19 09:24:25;;;;;;;8.73;4.68;;;;;;;13.06;39.94;91952.75;4956893;28;20081;-79
2022/04/19 09:26:51;;;;;;;9.57;4.82;;;;;;;13.22;39.19;91954.88;4974678;28;20431;-80
2022/04/19 09:29:25;;;;;;;7.35;4.47;;;;;;;12.47;40.45;91952.53;4957877;28;20110;-79
2022/04/19 09:32:01;;;;;;;8.68;4.97;;;;;;;12.84;39.65;91937.19;4958201;28;20133;-79
2022/04/19 09:34:34;;;;;;;9.27;4.75;;;;;;;12.93;39.64;91937.94;4958467;28;20077;-80
2022/04/19 09:37:08;;;;;;;9.77;4.20;;;;;;;13.18;39.18;91933.69;4957754;28;20039;-80
2022/04/19 09:39:36;;;;;;;8.75;4.63;;;;;;;13.42;38.50;91929.75;4974275;28;20038;-79
2022/04/19 09:42:04;;;;;;;8.40;4.97;;;;;;;13.14;38.43;91932.78;4974568;28;20027;-79
2022/04/19 09:44:30;;;;;;;7.22;3.95;;;;;;;13.02;38.94;91930.81;4974528;28;20412;-80
2022/04/19 09:47:07;;;;;;;10.25;4.88;;;;;;;13.42;37.70;91932.38;4974078;28;20039;-79
2022/04/19 09:49:53;;;;;;;12.27;4.85;;;;;;;13.39;38.80;91917.25;4977730;28;20396;-79
2022/04/19 09:52:22;;;;;;;7.97;4.55;;;;;;;13.50;38.49;91916.56;4977991;28;20039;-81
2022/04/19 09:55:05;;;;;;;9.60;4.53;;;;;;;13.39;38.61;91910.13;4961269;28;20035;-80
2022/04/19 09:57:36;;;;;;;10.07;4.70;;;;;;;12.99;39.50;91910.44;4960504;28;20052;-80
2022/04/19 10:00:08;;;;;;;10.65;5.10;;;;;;;13.05;39.15;91909.16;4961287;28;20030;-79
2022/04/19 10:08:19;;;;;;;8.15;4.47;;;;;;;14.24;37.38;91903.09;4960048;28;20431;-81
2022/04/19 10:10:50;;;;;;;8.60;4.28;;;;;;;13.65;37.72;91906.59;4945046;28;20035;-80
2022/04/19 10:13:20;;;;;;;10.43;4.70;;;;;;;13.62;37.52;91909.84;4960433;28;20125;-80
2022/04/19 10:15:46;;;;;;;9.40;4.38;;;;;;;13.66;37.24;91889.72;4977901;28;20046;-80
2022/04/19 10:18:12;;;;;;;9.35;4.70;;;;;;;13.70;37.97;91890.63;4960282;28;20161;-80
2022/04/19 10:20:54;;;;;;;10.13;4.82;;;;;;;13.94;37.73;91896.03;4977625;28;20081;-79
2022/04/19 10:23:21;;;;;;;8.23;4.47;;;;;;;14.14;37.83;91896.38;4977427;28;20039;-79
2022/04/19 10:25:48;;;;;;;8.00;4.55;;;;;;;14.20;37.03;91887.16;4978160;28;20045;-79
2022/04/19 10:28:15;;;;;;;11.23;4.90;;;;;;;14.36;36.67;91882.88;4972367;28;20031;-79
2022/04/19 10:30:51;;;;;;;9.55;4.50;;;;;;;14.31;37.12;91885.66;4996718;28;20038;-79
2022/04/19 10:33:39;;;;;;;8.30;4.68;;;;;;;13.88;37.14;91884.16;4996732;28;20347;-80
2022/04/19 10:36:16;;;;;;;10.02;5.30;;;;;;;13.56;37.01;91875.09;4997016;28;20030;-80
2022/04/19 10:38:44;;;;;;;10.63;4.50;;;;;;;13.93;37.75;91878.69;4971695;28;20046;-80
2022/04/19 10:41:10;;;;;;;8.88;4.50;;;;;;;13.71;37.32;91868.47;4977598;28;20085;-79
2022/04/19 10:43:35;;;;;;;9.23;5.40;;;;;;;14.31;37.30;91879.66;4976655;28;20448;-79
2022/04/19 10:46:20;;;;;;;8.98;3.90;;;;;;;14.54;36.54;91872.16;4960072;28;20073;-80
2022/04/19 10:49:34;;;;;;;9.27;4.70;;;;;;;14.30;36.26;91881.50;4975969;28;20045;-80
2022/04/19 10:52:00;;;;;;;;;;;;;;;14.81;35.50;91878.72;4945674;28;20047;-80
2022/04/19 10:55:02;;;;;;;8.68;3.92;;;;;;;15.05;33.97;91864.81;4951986;28;20389;-80
2022/04/19 11:00:34;;;;;;;9.70;5.00;;;;;;;15.62;34.46;91857.88;4976618;28;20105;-76
2022/04/19 11:03:06;;;;;;;10.65;4.63;;;;;;;15.80;34.59;91861.84;4944021;28;20094;-77
2022/04/19 11:05:44;;;;;;;9.27;5.10;;;;;;;15.74;33.83;91854.50;4958664;28;20069;-74
2022/04/19 11:08:36;;;;;;;11.10;5.05;;;;;;;15.77;35.19;91854.59;4958710;28;20129;-75
2022/04/19 11:11:02;;;;;;;9.57;4.73;;;;;;;16.01;33.75;91847.72;4966532;28;20110;-75
2022/04/19 11:13:31;;;;;;;12.35;5.07;;;;;;;16.26;34.68;91848.41;4939645;29;20039;-74
2022/04/19 11:16:13;;;;;;;9.00;4.90;;;;;;;16.99;32.33;91831.41;4923540;29;20046;-74
2022/04/19 11:18:41;;;;;;;10.70;5.20;;;;;;;17.09;32.22;91839.94;4966119;28;20035;-75
2022/04/19 11:21:11;;;;;;;9.15;4.82;;;;;;;17.46;31.24;91837.78;4957070;28;20035;-75
2022/04/19 11:23:48;;;;;;;7.80;4.70;;;;;;;17.44;31.28;91826.78;4958293;28;20366;-75
2022/04/19 11:26:26;;;;;;;9.07;5.47;;;;;;;16.60;32.31;91830.44;4942161;28;20038;-75
2022/04/19 11:29:10;;;;;;;13.27;4.63;;;;;;;15.64;33.22;91829.31;4975118;28;20030;-75
2022/04/19 11:31:56;;;;;;;9.65;5.28;;;;;;;16.29;33.99;91825.84;4941833;28;20031;-75
2022/04/19 11:34:23;;;;;;;10.57;5.10;;;;;;;16.54;33.16;91824.59;4975178;28;20042;-75
2022/04/19 11:36:49;;;;;;;9.35;5.25;;;;;;;16.82;32.62;91819.31;4958060;28;20034;-74
2022/04/19 11:47:58;;;;;;;8.40;4.80;;;;;;;17.68;32.52;91802.75;4965878;28;20098;-75
2022/04/19 11:50:31;;;;;;;12.35;5.53;;;;;;;16.71;32.04;91809.56;4952191;28;20030;-75
2022/04/19 11:52:58;;;;;;;12.10;6.00;;;;;;;17.02;32.87;91806.97;4958267;28;20500;-75
2022/04/19 11:55:27;;;;;;;9.55;5.78;;;;;;;17.44;32.06;91806.38;4959075;28;20042;-75
2022/04/19 11:58:09;;;;;;;10.13;5.32;;;;;;;17.56;31.13;91794.16;4958507;28;20042;-75
2022/04/19 12:00:36;;;;;;;18.30;5.80;;;;;;;17.02;32.53;91788.44;4958797;28;20547;-75
2022/04/19 12:03:22;;;;;;;11.48;4.97;;;;;;;16.56;32.40;91780.13;4975623;28;20047;-75
2022/04/19 12:05:48;;;;;;;8.10;5.03;;;;;;;16.31;34.63;91776.84;4958610;28;20046;-75
2022/04/19 12:08:33;;;;;;;10.65;5.53;;;;;;;16.41;33.64;91792.22;4943729;29;20027;-75
2022/04/19 12:11:03;;;;;;;9.07;5.53;;;;;;;16.75;32.50;91774.19;4956574;28;20066;-75
2022/04/19 12:13:29;;;;;;;10.73;5.60;;;;;;;15.96;33.35;91777.47;4960296;28;20034;-75
2022/04/19 12:15:55;;;;;;;8.57;5.18;;;;;;;16.42;32.74;91785.06;4974827;28;20084;-75
2022/04/19 12:18:34;;;;;;;11.18;5.65;;;;;;;15.86;32.76;91771.91;4941845;28;20054;-75
2022/04/19 12:21:01;;;;;;;10.88;5.45;;;;;;;16.63;32.93;91784.81;4975409;28;20089;-75
2022/04/19 12:23:27;;;;;;;10.32;5.18;;;;;;;17.40;31.88;91781.72;4942499;28;20047;-75
2022/04/19 12:26:01;;;;;;;9.95;5.60;;;;;;;17.51;31.36;91784.59;4959096;28;20077;-75
2022/04/19 12:28:45;;;;;;;9.00;5.30;;;;;;;17.95;30.22;91768.50;4976555;28;20065;-75
2022/04/19 12:31:34;;;;;;;12.90;5.72;;;;;;;16.65;31.94;91770.16;4975351;28;20027;-75
2022/04/19 12:34:00;;;;;;;10.20;4.72;;;;;;;17.01;31.47;91764.97;4924004;29;20102;-75
2022/04/19 12:36:48;;;;;;;8.88;4.80;;;;;;;16.83;31.91;91759.28;4955812;29;20257;-75
2022/04/19 12:39:14;;;;;;;9.07;4.25;;;;;;;16.39;31.07;91757.47;4956091;28;20039;-74
2022/04/19 12:41:45;;;;;;;9.52;4.68;;;;;;;15.96;31.63;91745.00;4939765;29;20054;-75
2022/04/19 12:44:15;;;;;;;10.38;4.97;;;;;;;16.20;32.12;91752.81;4939726;29;20035;-75
2022/04/19 12:46:48;;;;;;;8.57;4.80;;;;;;;16.41;30.98;91763.16;4936914;29;20090;-75
2022/04/19 12:49:26;;;;;;;11.23;5.18;;;;;;;16.51;31.37;91742.63;4954366;29;20059;-75
2022/04/19 12:52:09;;;;;;;7.88;4.63;;;;;;;16.25;33.86;91735.94;4955648;28;20039;-75
2022/04/19 12:54:37;;;;;;;7.93;4.75;;;;;;;16.37;32.50;91746.47;4955185;28;20035;-75
2022/04/19 12:57:24;;;;;;;8.48;4.35;;;;;;;16.45;31.08;91742.88;4956318;28;20392;-75
2022/04/19 12:59:51;;;;;;;7.85;4.97;;;;;;;16.80;31.43;91734.31;4939034;29;20059;-75
2022/04/19 13:02:18;;;;;;;8.27;3.70;;;;;;;16.28;32.00;91740.56;4939239;29;20117;-74
2022/04/19 13:04:48;;;;;;;8.75;4.60;;;;;;;16.24;32.11;91723.88;4955785;29;20062;-75
2022/04/19 13:12:46;;;;;;;7.45;3.97;;;;;;;16.30;31.74;91716.44;4955285;29;20128;-75
2022/04/19 13:15:12;;;;;;;10.93;4.35;;;;;;;16.13;31.52;91712.28;4954748;29;20066;-74
2022/04/19 13:17:41;;;;;;;7.47;4.45;;;;;;;16.07;32.03;91713.63;4952418;29;20437;-74
2022/04/19 13:20:08;;;;;;;7.97;3.97;;;;;;;16.14;32.21;91714.56;4952983;29;20043;-74
2022/04/19 13:22:34;;;;;;;10.85;4.60;;;;;;;16.18;31.72;91712.78;4948044;28;20067;-75
2022/04/19 13:25:00;;;;;;;6.18;3.72;;;;;;;15.17;32.91;91711.91;4938234;29;20035;-75
2022/04/19 13:27:30;;;;;;;7.70;4.00;;;;;;;15.28;33.31;91722.00;4957811;28;20341;-75
2022/04/19 13:29:55;;;;;;;9.48;5.15;;;;;;;15.57;33.00;91708.53;4956140;29;20045;-75
2022/04/19 13:32:21;;;;;;;9.50;4.05;;;;;;;15.54;32.28;91708.44;4961256;28;20404;-75
2022/04/19 13:34:47;;;;;;;8.98;4.53;;;;;;;15.96;32.17;91703.56;4977294;28;20129;-75
2022/04/19 13:37:16;;;;;;;6.72;4.22;;;;;;;16.31;32.04;91694.22;4977057;28;20101;-75
2022/04/19 13:39:41;;;;;;;8.50;4.28;;;;;;;16.59;32.09;91692.25;4976699;28;20536;-75
2022/04/19 13:42:07;;;;;;;7.65;4.30;;;;;;;16.76;31.09;91704.34;4977138;28;20062;-75
2022/04/19 13:44:33;;;;;;;10.63;4.40;;;;;;;16.73;30.99;91697.13;4959819;28;20043;-75
2022/04/19 13:46:59;;;;;;;11.55;4.07;;;;;;;16.64;31.96;91694.66;4943713;28;20070;-75
2022/04/19 13:49:25;;;;;;;8.68;4.60;;;;;;;16.92;31.03;91695.66;4959668;28;20093;-75
2022/04/19 13:51:52;;;;;;;6.97;4.25;;;;;;;17.25;29.75;91685.44;4976719;28;20547;-75
2022/04/19 13:54:20;;;;;;;7.68;4.32;;;;;;;16.88;30.16;91687.66;4977043;28;20039;-75